sensor_id;sensor_type;location;lat;lon;timestamp;P1;durP1;ratioP1;P2;durP2;ratioP2
79314;SDS011;68777;44.804;0.552;2023-04-19T00:02:10;6.75;;;6.00;;
79314;SDS011;68777;44.804;0.552;2023-04-19T00:04:35;10.75;;;8.25;;
79314;SDS011;68777;44.804;0.552;2023-04-19T00:07:02;7.25;;;5.75;;
79314;SDS011;68777;44.804;0.552;2023-04-19T00:09:27;9.25;;;7.00;;
79314;SDS011;68777;44.804;0.552;2023-04-19T00:11:52;5.00;;;5.00;;
79314;SDS011;68777;44.804;0.552;2023-04-19T00:14:18;5.50;;;5.00;;
79314;SDS011;68777;44.804;0.552;2023-04-19T00:16:43;6.75;;;6.75;;
79314;SDS011;68777;44.804;0.552;2023-04-19T00:19:09;7.25;;;7.00;;
79314;SDS011;68777;44.804;0.552;2023-04-19T00:21:35;8.75;;;6.25;;
79314;SDS011;68777;44.804;0.552;2023-04-19T00:24:01;9.50;;;6.00;;
79314;SDS011;68777;44.804;0.552;2023-04-19T00:26:27;6.50;;;5.25;;
79314;SDS011;68777;44.804;0.552;2023-04-19T00:28:52;7.00;;;5.25;;
79314;SDS011;68777;44.804;0.552;2023-04-19T00:31:17;5.25;;;5.25;;
79314;SDS011;68777;44.804;0.552;2023-04-19T00:33:43;10.75;;;7.00;;
79314;SDS011;68777;44.804;0.552;2023-04-19T00:36:08;6.00;;;6.00;;
79314;SDS011;68777;44.804;0.552;2023-04-19T00:38:34;6.75;;;6.75;;
79314;SDS011;68777;44.804;0.552;2023-04-19T00:41:00;4.00;;;4.00;;
79314;SDS011;68777;44.804;0.552;2023-04-19T00:43:25;6.25;;;5.00;;
79314;SDS011;68777;44.804;0.552;2023-04-19T00:45:51;9.25;;;7.25;;
79314;SDS011;68777;44.804;0.552;2023-04-19T00:48:17;6.75;;;6.75;;
79314;SDS011;68777;44.804;0.552;2023-04-19T00:50:43;8.75;;;7.00;;
79314;SDS011;68777;44.804;0.552;2023-04-19T00:53:09;5.50;;;5.50;;
79314;SDS011;68777;44.804;0.552;2023-04-19T00:55:34;5.00;;;5.00;;
79314;SDS011;68777;44.804;0.552;2023-04-19T00:58:02;11.00;;;7.25;;
79314;SDS011;68777;44.804;0.552;2023-04-19T01:00:30;5.00;;;5.00;;
79314;SDS011;68777;44.804;0.552;2023-04-19T01:02:56;7.75;;;6.00;;
79314;SDS011;68777;44.804;0.552;2023-04-19T01:05:22;5.25;;;4.50;;
79314;SDS011;68777;44.804;0.552;2023-04-19T01:07:47;8.75;;;7.00;;
79314;SDS011;68777;44.804;0.552;2023-04-19T01:10:13;7.00;;;7.00;;
79314;SDS011;68777;44.804;0.552;2023-04-19T01:12:38;9.00;;;9.00;;
79314;SDS011;68777;44.804;0.552;2023-04-19T01:15:04;6.00;;;6.00;;
79314;SDS011;68777;44.804;0.552;2023-04-19T01:17:31;7.00;;;6.00;;
79314;SDS011;68777;44.804;0.552;2023-04-19T01:20:03;5.75;;;5.75;;
79314;SDS011;68777;44.804;0.552;2023-04-19T01:22:32;7.50;;;7.00;;
79314;SDS011;68777;44.804;0.552;2023-04-19T01:25:04;9.00;;;6.50;;
79314;SDS011;68777;44.804;0.552;2023-04-19T01:27:31;12.00;;;10.00;;
79314;SDS011;68777;44.804;0.552;2023-04-19T01:29:56;10.00;;;9.00;;
79314;SDS011;68777;44.804;0.552;2023-04-19T01:32:22;7.00;;;7.00;;
79314;SDS011;68777;44.804;0.552;2023-04-19T01:34:49;3.25;;;2.75;;
79314;SDS011;68777;44.804;0.552;2023-04-19T01:37:14;7.00;;;7.00;;
79314;SDS011;68777;44.804;0.552;2023-04-19T01:39:40;6.50;;;6.50;;
79314;SDS011;68777;44.804;0.552;2023-04-19T01:42:05;6.00;;;6.00;;
79314;SDS011;68777;44.804;0.552;2023-04-19T01:44:30;5.25;;;5.25;;
79314;SDS011;68777;44.804;0.552;2023-04-19T01:46:56;6.50;;;6.50;;
79314;SDS011;68777;44.804;0.552;2023-04-19T01:49:21;9.50;;;6.75;;
79314;SDS011;68777;44.804;0.552;2023-04-19T01:51:47;10.00;;;8.00;;
79314;SDS011;68777;44.804;0.552;2023-04-19T01:54:12;8.00;;;8.00;;
79314;SDS011;68777;44.804;0.552;2023-04-19T01:56:37;5.75;;;5.75;;
79314;SDS011;68777;44.804;0.552;2023-04-19T01:59:03;7.75;;;6.00;;
79314;SDS011;68777;44.804;0.552;2023-04-19T02:01:28;8.75;;;7.75;;
79314;SDS011;68777;44.804;0.552;2023-04-19T02:03:53;5.50;;;5.50;;
79314;SDS011;68777;44.804;0.552;2023-04-19T02:06:19;9.00;;;9.00;;
79314;SDS011;68777;44.804;0.552;2023-04-19T02:08:44;11.50;;;9.25;;
79314;SDS011;68777;44.804;0.552;2023-04-19T02:11:11;13.25;;;9.25;;
79314;SDS011;68777;44.804;0.552;2023-04-19T02:13:41;9.00;;;9.00;;
79314;SDS011;68777;44.804;0.552;2023-04-19T02:16:07;9.25;;;8.00;;
79314;SDS011;68777;44.804;0.552;2023-04-19T02:18:34;9.75;;;9.75;;
79314;SDS011;68777;44.804;0.552;2023-04-19T02:21:03;10.00;;;10.00;;
79314;SDS011;68777;44.804;0.552;2023-04-19T02:23:30;8.50;;;7.00;;
79314;SDS011;68777;44.804;0.552;2023-04-19T02:25:55;7.75;;;7.75;;
79314;SDS011;68777;44.804;0.552;2023-04-19T02:28:21;11.00;;;8.00;;
79314;SDS011;68777;44.804;0.552;2023-04-19T02:30:46;8.00;;;8.00;;
79314;SDS011;68777;44.804;0.552;2023-04-19T02:33:12;9.00;;;8.25;;
79314;SDS011;68777;44.804;0.552;2023-04-19T02:35:37;9.75;;;8.50;;
79314;SDS011;68777;44.804;0.552;2023-04-19T02:38:03;10.00;;;10.00;;
79314;SDS011;68777;44.804;0.552;2023-04-19T02:40:28;9.25;;;8.25;;
79314;SDS011;68777;44.804;0.552;2023-04-19T02:42:54;11.00;;;11.00;;
79314;SDS011;68777;44.804;0.552;2023-04-19T02:45:19;8.25;;;5.50;;
79314;SDS011;68777;44.804;0.552;2023-04-19T02:47:45;9.25;;;9.00;;
79314;SDS011;68777;44.804;0.552;2023-04-19T02:50:10;8.50;;;8.50;;
79314;SDS011;68777;44.804;0.552;2023-04-19T02:52:37;12.00;;;10.00;;
79314;SDS011;68777;44.804;0.552;2023-04-19T02:55:03;10.50;;;9.50;;
79314;SDS011;68777;44.804;0.552;2023-04-19T02:57:31;12.00;;;9.50;;
79314;SDS011;68777;44.804;0.552;2023-04-19T02:59:57;7.75;;;7.75;;
79314;SDS011;68777;44.804;0.552;2023-04-19T03:02:23;7.50;;;7.25;;
79314;SDS011;68777;44.804;0.552;2023-04-19T03:04:51;9.50;;;8.00;;
79314;SDS011;68777;44.804;0.552;2023-04-19T03:07:18;11.00;;;8.75;;
79314;SDS011;68777;44.804;0.552;2023-04-19T03:09:43;9.00;;;8.50;;
79314;SDS011;68777;44.804;0.552;2023-04-19T03:12:08;10.25;;;9.25;;
79314;SDS011;68777;44.804;0.552;2023-04-19T03:14:34;9.25;;;9.00;;
79314;SDS011;68777;44.804;0.552;2023-04-19T03:16:59;15.50;;;11.00;;
79314;SDS011;68777;44.804;0.552;2023-04-19T03:19:25;9.50;;;9.00;;
79314;SDS011;68777;44.804;0.552;2023-04-19T03:21:50;12.75;;;11.25;;
79314;SDS011;68777;44.804;0.552;2023-04-19T03:24:17;9.00;;;8.25;;
79314;SDS011;68777;44.804;0.552;2023-04-19T03:26:43;10.25;;;9.75;;
79314;SDS011;68777;44.804;0.552;2023-04-19T03:29:08;11.00;;;8.75;;
79314;SDS011;68777;44.804;0.552;2023-04-19T03:31:33;16.50;;;9.75;;
79314;SDS011;68777;44.804;0.552;2023-04-19T03:33:59;9.50;;;9.50;;
79314;SDS011;68777;44.804;0.552;2023-04-19T03:36:24;10.75;;;10.00;;
79314;SDS011;68777;44.804;0.552;2023-04-19T03:38:50;9.25;;;9.25;;
79314;SDS011;68777;44.804;0.552;2023-04-19T03:41:19;10.75;;;9.00;;
79314;SDS011;68777;44.804;0.552;2023-04-19T03:43:45;11.00;;;9.00;;
79314;SDS011;68777;44.804;0.552;2023-04-19T03:46:10;15.25;;;14.50;;
79314;SDS011;68777;44.804;0.552;2023-04-19T03:48:35;9.50;;;9.50;;
79314;SDS011;68777;44.804;0.552;2023-04-19T03:51:01;11.25;;;11.25;;
79314;SDS011;68777;44.804;0.552;2023-04-19T03:53:26;8.25;;;7.50;;
79314;SDS011;68777;44.804;0.552;2023-04-19T03:55:51;9.00;;;8.00;;
79314;SDS011;68777;44.804;0.552;2023-04-19T03:58:17;9.75;;;9.00;;
79314;SDS011;68777;44.804;0.552;2023-04-19T04:00:42;10.25;;;9.75;;
79314;SDS011;68777;44.804;0.552;2023-04-19T04:03:07;6.50;;;6.50;;
79314;SDS011;68777;44.804;0.552;2023-04-19T04:05:33;6.50;;;6.50;;
79314;SDS011;68777;44.804;0.552;2023-04-19T04:07:59;11.50;;;8.50;;
79314;SDS011;68777;44.804;0.552;2023-04-19T04:10:24;8.00;;;8.00;;
79314;SDS011;68777;44.804;0.552;2023-04-19T04:12:50;11.75;;;8.75;;
79314;SDS011;68777;44.804;0.552;2023-04-19T04:15:15;8.75;;;8.00;;
79314;SDS011;68777;44.804;0.552;2023-04-19T04:17:41;11.00;;;9.00;;
79314;SDS011;68777;44.804;0.552;2023-04-19T04:20:07;11.00;;;11.00;;
79314;SDS011;68777;44.804;0.552;2023-04-19T04:22:33;11.75;;;10.75;;
79314;SDS011;68777;44.804;0.552;2023-04-19T04:24:59;9.00;;;9.00;;
79314;SDS011;68777;44.804;0.552;2023-04-19T04:27:26;8.25;;;8.25;;
79314;SDS011;68777;44.804;0.552;2023-04-19T04:29:51;15.00;;;12.00;;
79314;SDS011;68777;44.804;0.552;2023-04-19T04:32:17;11.25;;;9.50;;
79314;SDS011;68777;44.804;0.552;2023-04-19T04:34:46;9.00;;;9.00;;
79314;SDS011;68777;44.804;0.552;2023-04-19T04:37:12;12.25;;;11.25;;
79314;SDS011;68777;44.804;0.552;2023-04-19T04:39:37;11.75;;;11.75;;
79314;SDS011;68777;44.804;0.552;2023-04-19T04:42:04;11.00;;;8.50;;
79314;SDS011;68777;44.804;0.552;2023-04-19T04:44:32;13.25;;;12.75;;
79314;SDS011;68777;44.804;0.552;2023-04-19T04:47:01;18.25;;;16.00;;
79314;SDS011;68777;44.804;0.552;2023-04-19T04:49:27;22.25;;;20.25;;
79314;SDS011;68777;44.804;0.552;2023-04-19T04:51:52;14.75;;;14.75;;
79314;SDS011;68777;44.804;0.552;2023-04-19T04:54:18;18.75;;;17.25;;
79314;SDS011;68777;44.804;0.552;2023-04-19T04:56:43;14.75;;;14.75;;
79314;SDS011;68777;44.804;0.552;2023-04-19T04:59:08;19.75;;;17.25;;
79314;SDS011;68777;44.804;0.552;2023-04-19T05:01:35;14.00;;;14.00;;
79314;SDS011;68777;44.804;0.552;2023-04-19T05:04:00;11.25;;;11.25;;
79314;SDS011;68777;44.804;0.552;2023-04-19T05:06:25;12.00;;;11.00;;
79314;SDS011;68777;44.804;0.552;2023-04-19T05:08:51;8.75;;;8.75;;
79314;SDS011;68777;44.804;0.552;2023-04-19T05:11:16;11.25;;;11.25;;
79314;SDS011;68777;44.804;0.552;2023-04-19T05:13:42;14.25;;;12.00;;
79314;SDS011;68777;44.804;0.552;2023-04-19T05:16:07;11.25;;;11.00;;
79314;SDS011;68777;44.804;0.552;2023-04-19T05:18:33;15.50;;;15.50;;
79314;SDS011;68777;44.804;0.552;2023-04-19T05:20:58;14.75;;;14.00;;
79314;SDS011;68777;44.804;0.552;2023-04-19T05:23:24;15.25;;;14.00;;
79314;SDS011;68777;44.804;0.552;2023-04-19T05:25:49;22.25;;;21.75;;
79314;SDS011;68777;44.804;0.552;2023-04-19T05:28:16;20.25;;;20.25;;
79314;SDS011;68777;44.804;0.552;2023-04-19T05:30:41;17.75;;;16.50;;
79314;SDS011;68777;44.804;0.552;2023-04-19T05:33:07;21.50;;;19.50;;
79314;SDS011;68777;44.804;0.552;2023-04-19T05:35:32;15.00;;;13.25;;
79314;SDS011;68777;44.804;0.552;2023-04-19T05:37:58;14.50;;;14.50;;
79314;SDS011;68777;44.804;0.552;2023-04-19T05:40:32;19.00;;;17.00;;
79314;SDS011;68777;44.804;0.552;2023-04-19T05:42:59;17.25;;;15.25;;
79314;SDS011;68777;44.804;0.552;2023-04-19T05:45:24;18.75;;;15.50;;
79314;SDS011;68777;44.804;0.552;2023-04-19T05:47:50;19.25;;;15.75;;
79314;SDS011;68777;44.804;0.552;2023-04-19T05:50:15;21.25;;;18.50;;
79314;SDS011;68777;44.804;0.552;2023-04-19T05:52:42;35.00;;;32.25;;
79314;SDS011;68777;44.804;0.552;2023-04-19T05:55:07;25.00;;;25.00;;
79314;SDS011;68777;44.804;0.552;2023-04-19T05:57:33;19.00;;;19.00;;
79314;SDS011;68777;44.804;0.552;2023-04-19T05:59:59;22.00;;;17.25;;
79314;SDS011;68777;44.804;0.552;2023-04-19T06:02:24;16.25;;;16.00;;
79314;SDS011;68777;44.804;0.552;2023-04-19T06:04:50;13.25;;;13.25;;
79314;SDS011;68777;44.804;0.552;2023-04-19T06:07:15;22.25;;;22.25;;
79314;SDS011;68777;44.804;0.552;2023-04-19T06:09:41;23.00;;;22.00;;
79314;SDS011;68777;44.804;0.552;2023-04-19T06:12:06;13.50;;;13.50;;
79314;SDS011;68777;44.804;0.552;2023-04-19T06:14:32;16.25;;;15.00;;
79314;SDS011;68777;44.804;0.552;2023-04-19T06:16:57;17.75;;;16.25;;
79314;SDS011;68777;44.804;0.552;2023-04-19T06:19:22;22.75;;;19.75;;
79314;SDS011;68777;44.804;0.552;2023-04-19T06:21:48;16.25;;;14.00;;
79314;SDS011;68777;44.804;0.552;2023-04-19T06:24:13;13.25;;;13.25;;
79314;SDS011;68777;44.804;0.552;2023-04-19T06:26:39;12.50;;;12.50;;
79314;SDS011;68777;44.804;0.552;2023-04-19T06:29:04;12.25;;;12.25;;
79314;SDS011;68777;44.804;0.552;2023-04-19T06:31:30;15.25;;;14.00;;
79314;SDS011;68777;44.804;0.552;2023-04-19T06:33:56;12.25;;;10.50;;
79314;SDS011;68777;44.804;0.552;2023-04-19T06:36:22;12.75;;;11.00;;
79314;SDS011;68777;44.804;0.552;2023-04-19T06:38:47;11.25;;;10.75;;
79314;SDS011;68777;44.804;0.552;2023-04-19T06:41:13;15.25;;;9.00;;
79314;SDS011;68777;44.804;0.552;2023-04-19T06:43:39;12.75;;;12.50;;
79314;SDS011;68777;44.804;0.552;2023-04-19T06:46:06;14.50;;;14.50;;
79314;SDS011;68777;44.804;0.552;2023-04-19T06:48:32;13.50;;;12.50;;
79314;SDS011;68777;44.804;0.552;2023-04-19T06:50:58;8.50;;;6.00;;
79314;SDS011;68777;44.804;0.552;2023-04-19T06:53:24;11.25;;;11.25;;
79314;SDS011;68777;44.804;0.552;2023-04-19T06:55:56;13.25;;;10.75;;
79314;SDS011;68777;44.804;0.552;2023-04-19T06:58:23;13.50;;;12.00;;
79314;SDS011;68777;44.804;0.552;2023-04-19T07:00:49;13.00;;;13.00;;
79314;SDS011;68777;44.804;0.552;2023-04-19T07:03:14;13.50;;;12.50;;
79314;SDS011;68777;44.804;0.552;2023-04-19T07:05:40;13.50;;;13.50;;
79314;SDS011;68777;44.804;0.552;2023-04-19T07:08:05;13.75;;;13.00;;
79314;SDS011;68777;44.804;0.552;2023-04-19T07:10:31;17.75;;;15.75;;
79314;SDS011;68777;44.804;0.552;2023-04-19T07:12:56;14.00;;;14.00;;
79314;SDS011;68777;44.804;0.552;2023-04-19T07:15:21;21.50;;;21.50;;
79314;SDS011;68777;44.804;0.552;2023-04-19T07:17:47;15.25;;;15.25;;
79314;SDS011;68777;44.804;0.552;2023-04-19T07:20:12;7.75;;;7.75;;
79314;SDS011;68777;44.804;0.552;2023-04-19T07:22:38;16.00;;;16.00;;
79314;SDS011;68777;44.804;0.552;2023-04-19T07:25:03;15.75;;;13.50;;
79314;SDS011;68777;44.804;0.552;2023-04-19T07:27:28;16.75;;;15.00;;
79314;SDS011;68777;44.804;0.552;2023-04-19T07:29:54;15.50;;;14.75;;
79314;SDS011;68777;44.804;0.552;2023-04-19T07:32:19;16.50;;;14.75;;
79314;SDS011;68777;44.804;0.552;2023-04-19T07:34:45;14.25;;;11.00;;
79314;SDS011;68777;44.804;0.552;2023-04-19T07:37:10;11.25;;;10.50;;
79314;SDS011;68777;44.804;0.552;2023-04-19T07:39:37;15.00;;;13.50;;
79314;SDS011;68777;44.804;0.552;2023-04-19T07:42:03;9.75;;;9.75;;
79314;SDS011;68777;44.804;0.552;2023-04-19T07:44:28;15.00;;;14.00;;
79314;SDS011;68777;44.804;0.552;2023-04-19T07:46:53;14.75;;;12.75;;
79314;SDS011;68777;44.804;0.552;2023-04-19T07:49:19;12.75;;;11.75;;
79314;SDS011;68777;44.804;0.552;2023-04-19T07:51:44;15.25;;;14.25;;
79314;SDS011;68777;44.804;0.552;2023-04-19T07:54:10;12.00;;;12.00;;
79314;SDS011;68777;44.804;0.552;2023-04-19T07:56:36;9.00;;;9.00;;
79314;SDS011;68777;44.804;0.552;2023-04-19T07:59:02;10.00;;;8.75;;
79314;SDS011;68777;44.804;0.552;2023-04-19T08:01:28;8.50;;;8.50;;
79314;SDS011;68777;44.804;0.552;2023-04-19T08:03:53;11.25;;;10.75;;
79314;SDS011;68777;44.804;0.552;2023-04-19T08:06:19;11.00;;;11.00;;
79314;SDS011;68777;44.804;0.552;2023-04-19T08:08:45;14.00;;;12.00;;
79314;SDS011;68777;44.804;0.552;2023-04-19T08:11:11;18.00;;;15.50;;
79314;SDS011;68777;44.804;0.552;2023-04-19T08:13:37;16.50;;;16.50;;
79314;SDS011;68777;44.804;0.552;2023-04-19T08:16:02;15.75;;;14.25;;
79314;SDS011;68777;44.804;0.552;2023-04-19T08:18:28;13.75;;;13.75;;
79314;SDS011;68777;44.804;0.552;2023-04-19T08:20:53;17.00;;;14.50;;
79314;SDS011;68777;44.804;0.552;2023-04-19T08:23:19;12.75;;;12.75;;
79314;SDS011;68777;44.804;0.552;2023-04-19T08:25:45;12.00;;;12.00;;
79314;SDS011;68777;44.804;0.552;2023-04-19T08:28:10;4.00;;;4.00;;
79314;SDS011;68777;44.804;0.552;2023-04-19T08:30:36;8.75;;;8.75;;
79314;SDS011;68777;44.804;0.552;2023-04-19T08:33:02;9.50;;;9.50;;
79314;SDS011;68777;44.804;0.552;2023-04-19T08:35:27;10.50;;;9.00;;
79314;SDS011;68777;44.804;0.552;2023-04-19T08:37:53;10.25;;;10.25;;
79314;SDS011;68777;44.804;0.552;2023-04-19T08:40:19;15.75;;;12.75;;
79314;SDS011;68777;44.804;0.552;2023-04-19T08:42:44;7.50;;;3.75;;
79314;SDS011;68777;44.804;0.552;2023-04-19T08:45:10;13.75;;;12.00;;
79314;SDS011;68777;44.804;0.552;2023-04-19T08:47:37;9.25;;;8.75;;
79314;SDS011;68777;44.804;0.552;2023-04-19T08:50:04;9.00;;;9.00;;
79314;SDS011;68777;44.804;0.552;2023-04-19T08:52:35;13.00;;;12.50;;
79314;SDS011;68777;44.804;0.552;2023-04-19T08:55:04;9.25;;;9.00;;
79314;SDS011;68777;44.804;0.552;2023-04-19T08:57:31;9.75;;;9.75;;
79314;SDS011;68777;44.804;0.552;2023-04-19T09:00:04;9.00;;;8.75;;
79314;SDS011;68777;44.804;0.552;2023-04-19T09:05:12;9.67;;;9.67;;
79314;SDS011;68777;44.804;0.552;2023-04-19T09:07:38;10.00;;;10.00;;
79314;SDS011;68777;44.804;0.552;2023-04-19T09:12:31;10.67;;;10.67;;
79314;SDS011;68777;44.804;0.552;2023-04-19T09:14:58;20.00;;;20.00;;
79314;SDS011;68777;44.804;0.552;2023-04-19T09:17:24;12.67;;;11.00;;
79314;SDS011;68777;44.804;0.552;2023-04-19T09:19:50;13.67;;;10.00;;
79314;SDS011;68777;44.804;0.552;2023-04-19T09:22:15;9.33;;;9.33;;
79314;SDS011;68777;44.804;0.552;2023-04-19T09:24:42;8.33;;;7.67;;
79314;SDS011;68777;44.804;0.552;2023-04-19T09:27:07;7.67;;;7.67;;
79314;SDS011;68777;44.804;0.552;2023-04-19T09:29:36;6.33;;;6.33;;
79314;SDS011;68777;44.804;0.552;2023-04-19T09:32:01;5.00;;;5.00;;
79314;SDS011;68777;44.804;0.552;2023-04-19T09:34:28;8.00;;;8.00;;
79314;SDS011;68777;44.804;0.552;2023-04-19T09:36:54;6.67;;;6.67;;
79314;SDS011;68777;44.804;0.552;2023-04-19T09:39:33;8.00;;;7.67;;
79314;SDS011;68777;44.804;0.552;2023-04-19T09:42:00;8.33;;;6.00;;
79314;SDS011;68777;44.804;0.552;2023-04-19T09:44:26;6.00;;;6.00;;
79314;SDS011;68777;44.804;0.552;2023-04-19T09:46:52;8.00;;;8.00;;
79314;SDS011;68777;44.804;0.552;2023-04-19T09:49:20;10.33;;;9.67;;
79314;SDS011;68777;44.804;0.552;2023-04-19T09:51:53;5.33;;;5.33;;
79314;SDS011;68777;44.804;0.552;2023-04-19T09:54:21;5.00;;;5.00;;
79314;SDS011;68777;44.804;0.552;2023-04-19T09:56:47;6.67;;;5.00;;
79314;SDS011;68777;44.804;0.552;2023-04-19T09:59:13;5.67;;;5.67;;
79314;SDS011;68777;44.804;0.552;2023-04-19T10:01:46;5.67;;;5.33;;
79314;SDS011;68777;44.804;0.552;2023-04-19T10:04:12;7.00;;;7.00;;
79314;SDS011;68777;44.804;0.552;2023-04-19T10:06:46;8.67;;;7.67;;
79314;SDS011;68777;44.804;0.552;2023-04-19T10:09:12;6.33;;;6.00;;
79314;SDS011;68777;44.804;0.552;2023-04-19T10:11:38;7.00;;;7.00;;
79314;SDS011;68777;44.804;0.552;2023-04-19T10:14:07;6.67;;;6.67;;
79314;SDS011;68777;44.804;0.552;2023-04-19T10:16:45;8.00;;;8.00;;
79314;SDS011;68777;44.804;0.552;2023-04-19T10:19:11;6.00;;;5.00;;
79314;SDS011;68777;44.804;0.552;2023-04-19T10:21:40;5.00;;;5.00;;
79314;SDS011;68777;44.804;0.552;2023-04-19T10:24:09;4.67;;;4.33;;
79314;SDS011;68777;44.804;0.552;2023-04-19T10:29:53;6.67;;;6.67;;
79314;SDS011;68777;44.804;0.552;2023-04-19T10:32:25;5.67;;;4.00;;
79314;SDS011;68777;44.804;0.552;2023-04-19T10:34:51;5.00;;;5.00;;
79314;SDS011;68777;44.804;0.552;2023-04-19T10:37:20;3.00;;;3.00;;
79314;SDS011;68777;44.804;0.552;2023-04-19T10:39:50;5.00;;;5.00;;
79314;SDS011;68777;44.804;0.552;2023-04-19T10:42:15;8.33;;;6.33;;
79314;SDS011;68777;44.804;0.552;2023-04-19T10:44:41;4.33;;;4.33;;
79314;SDS011;68777;44.804;0.552;2023-04-19T10:47:39;7.33;;;6.33;;
79314;SDS011;68777;44.804;0.552;2023-04-19T10:50:05;4.33;;;4.33;;
79314;SDS011;68777;44.804;0.552;2023-04-19T10:52:31;5.00;;;5.00;;
79314;SDS011;68777;44.804;0.552;2023-04-19T10:54:58;6.33;;;6.00;;
79314;SDS011;68777;44.804;0.552;2023-04-19T10:57:28;6.00;;;6.00;;
79314;SDS011;68777;44.804;0.552;2023-04-19T11:00:30;1.00;;;1.00;;
79314;SDS011;68777;44.804;0.552;2023-04-19T11:02:57;7.00;;;5.33;;
79314;SDS011;68777;44.804;0.552;2023-04-19T11:05:23;6.00;;;6.00;;
79314;SDS011;68777;44.804;0.552;2023-04-19T11:07:49;4.67;;;4.00;;
79314;SDS011;68777;44.804;0.552;2023-04-19T11:10:17;6.00;;;6.00;;
79314;SDS011;68777;44.804;0.552;2023-04-19T11:12:53;6.00;;;5.00;;
79314;SDS011;68777;44.804;0.552;2023-04-19T11:15:20;4.00;;;4.00;;
79314;SDS011;68777;44.804;0.552;2023-04-19T11:17:50;7.00;;;5.67;;
79314;SDS011;68777;44.804;0.552;2023-04-19T11:20:16;4.00;;;4.00;;
79314;SDS011;68777;44.804;0.552;2023-04-19T11:22:46;5.00;;;5.00;;
79314;SDS011;68777;44.804;0.552;2023-04-19T11:25:19;5.00;;;4.00;;
79314;SDS011;68777;44.804;0.552;2023-04-19T11:27:47;4.67;;;4.67;;
79314;SDS011;68777;44.804;0.552;2023-04-19T11:30:17;4.00;;;4.00;;
79314;SDS011;68777;44.804;0.552;2023-04-19T11:32:46;6.00;;;6.00;;
79314;SDS011;68777;44.804;0.552;2023-04-19T11:35:19;4.33;;;4.33;;
79314;SDS011;68777;44.804;0.552;2023-04-19T11:37:46;3.67;;;3.67;;
79314;SDS011;68777;44.804;0.552;2023-04-19T11:40:15;5.33;;;4.00;;
79314;SDS011;68777;44.804;0.552;2023-04-19T11:42:44;5.00;;;5.00;;
79314;SDS011;68777;44.804;0.552;2023-04-19T11:45:36;6.00;;;5.00;;
79314;SDS011;68777;44.804;0.552;2023-04-19T11:48:23;8.00;;;6.00;;
79314;SDS011;68777;44.804;0.552;2023-04-19T11:50:49;5.67;;;5.67;;
79314;SDS011;68777;44.804;0.552;2023-04-19T11:53:19;4.00;;;4.00;;
79314;SDS011;68777;44.804;0.552;2023-04-19T11:58:22;4.00;;;4.00;;
79314;SDS011;68777;44.804;0.552;2023-04-19T12:00:54;6.00;;;6.00;;
79314;SDS011;68777;44.804;0.552;2023-04-19T12:03:24;6.00;;;6.00;;
79314;SDS011;68777;44.804;0.552;2023-04-19T12:05:53;6.00;;;5.33;;
79314;SDS011;68777;44.804;0.552;2023-04-19T12:08:33;5.33;;;4.67;;
79314;SDS011;68777;44.804;0.552;2023-04-19T12:11:01;5.00;;;5.00;;
79314;SDS011;68777;44.804;0.552;2023-04-19T12:13:30;6.33;;;5.00;;
79314;SDS011;68777;44.804;0.552;2023-04-19T12:16:00;4.00;;;4.00;;
79314;SDS011;68777;44.804;0.552;2023-04-19T12:18:26;7.33;;;7.33;;
79314;SDS011;68777;44.804;0.552;2023-04-19T12:20:53;6.00;;;6.00;;
79314;SDS011;68777;44.804;0.552;2023-04-19T12:23:22;5.00;;;5.00;;
79314;SDS011;68777;44.804;0.552;2023-04-19T12:25:49;5.00;;;5.00;;
79314;SDS011;68777;44.804;0.552;2023-04-19T12:28:15;3.33;;;3.00;;
79314;SDS011;68777;44.804;0.552;2023-04-19T12:30:41;4.67;;;4.67;;
79314;SDS011;68777;44.804;0.552;2023-04-19T12:33:21;3.67;;;3.67;;
79314;SDS011;68777;44.804;0.552;2023-04-19T12:35:46;4.00;;;4.00;;
79314;SDS011;68777;44.804;0.552;2023-04-19T12:38:14;6.33;;;6.00;;
79314;SDS011;68777;44.804;0.552;2023-04-19T12:40:41;5.00;;;5.00;;
79314;SDS011;68777;44.804;0.552;2023-04-19T12:43:14;4.00;;;4.00;;
79314;SDS011;68777;44.804;0.552;2023-04-19T12:45:47;3.67;;;3.67;;
79314;SDS011;68777;44.804;0.552;2023-04-19T12:48:14;4.00;;;4.00;;
79314;SDS011;68777;44.804;0.552;2023-04-19T12:50:48;4.00;;;4.00;;
79314;SDS011;68777;44.804;0.552;2023-04-19T12:53:21;3.67;;;3.67;;
79314;SDS011;68777;44.804;0.552;2023-04-19T12:55:51;5.25;;;5.00;;
79314;SDS011;68777;44.804;0.552;2023-04-19T12:58:16;6.00;;;6.00;;
79314;SDS011;68777;44.804;0.552;2023-04-19T13:00:47;5.33;;;4.00;;
79314;SDS011;68777;44.804;0.552;2023-04-19T13:03:14;5.00;;;5.00;;
79314;SDS011;68777;44.804;0.552;2023-04-19T13:05:40;2.00;;;2.00;;
79314;SDS011;68777;44.804;0.552;2023-04-19T13:08:15;5.67;;;5.00;;
79314;SDS011;68777;44.804;0.552;2023-04-19T13:10:42;3.00;;;3.00;;
79314;SDS011;68777;44.804;0.552;2023-04-19T13:13:10;5.67;;;5.00;;
79314;SDS011;68777;44.804;0.552;2023-04-19T13:15:40;4.25;;;3.25;;
79314;SDS011;68777;44.804;0.552;2023-04-19T13:18:18;5.00;;;5.00;;
79314;SDS011;68777;44.804;0.552;2023-04-19T13:20:46;4.50;;;4.50;;
79314;SDS011;68777;44.804;0.552;2023-04-19T13:23:22;4.75;;;4.00;;
79314;SDS011;68777;44.804;0.552;2023-04-19T13:25:47;7.00;;;6.00;;
79314;SDS011;68777;44.804;0.552;2023-04-19T13:28:14;4.50;;;4.50;;
79314;SDS011;68777;44.804;0.552;2023-04-19T13:30:50;5.00;;;5.00;;
79314;SDS011;68777;44.804;0.552;2023-04-19T13:33:31;6.00;;;6.00;;
79314;SDS011;68777;44.804;0.552;2023-04-19T13:35:58;6.50;;;5.00;;
79314;SDS011;68777;44.804;0.552;2023-04-19T13:38:25;6.25;;;6.25;;
79314;SDS011;68777;44.804;0.552;2023-04-19T13:40:50;5.00;;;5.00;;
79314;SDS011;68777;44.804;0.552;2023-04-19T13:43:16;6.00;;;6.00;;
79314;SDS011;68777;44.804;0.552;2023-04-19T13:45:42;6.00;;;6.00;;
79314;SDS011;68777;44.804;0.552;2023-04-19T13:48:11;6.00;;;6.00;;
79314;SDS011;68777;44.804;0.552;2023-04-19T13:50:39;5.75;;;5.75;;
79314;SDS011;68777;44.804;0.552;2023-04-19T13:53:10;5.25;;;5.25;;
79314;SDS011;68777;44.804;0.552;2023-04-19T13:55:41;6.00;;;5.00;;
79314;SDS011;68777;44.804;0.552;2023-04-19T13:58:10;5.75;;;5.75;;
79314;SDS011;68777;44.804;0.552;2023-04-19T14:00:53;4.25;;;4.25;;
79314;SDS011;68777;44.804;0.552;2023-04-19T14:03:21;3.00;;;3.00;;
79314;SDS011;68777;44.804;0.552;2023-04-19T14:05:50;3.25;;;3.25;;
79314;SDS011;68777;44.804;0.552;2023-04-19T14:08:16;4.50;;;4.50;;
79314;SDS011;68777;44.804;0.552;2023-04-19T14:10:43;7.00;;;6.25;;
79314;SDS011;68777;44.804;0.552;2023-04-19T14:13:09;4.00;;;3.50;;
79314;SDS011;68777;44.804;0.552;2023-04-19T14:15:37;3.00;;;2.50;;
79314;SDS011;68777;44.804;0.552;2023-04-19T14:18:09;5.00;;;5.00;;
79314;SDS011;68777;44.804;0.552;2023-04-19T14:20:35;4.25;;;4.25;;
79314;SDS011;68777;44.804;0.552;2023-04-19T14:23:04;4.00;;;4.00;;
79314;SDS011;68777;44.804;0.552;2023-04-19T14:25:31;3.00;;;3.00;;
79314;SDS011;68777;44.804;0.552;2023-04-19T14:27:58;4.50;;;4.50;;
79314;SDS011;68777;44.804;0.552;2023-04-19T14:30:24;4.75;;;4.75;;
79314;SDS011;68777;44.804;0.552;2023-04-19T14:32:50;5.75;;;4.75;;
79314;SDS011;68777;44.804;0.552;2023-04-19T14:35:17;6.25;;;5.00;;
79314;SDS011;68777;44.804;0.552;2023-04-19T14:37:42;0.75;;;0.75;;
79314;SDS011;68777;44.804;0.552;2023-04-19T14:40:09;5.75;;;5.75;;
79314;SDS011;68777;44.804;0.552;2023-04-19T14:42:36;7.00;;;6.00;;
79314;SDS011;68777;44.804;0.552;2023-04-19T14:45:01;5.00;;;5.00;;
79314;SDS011;68777;44.804;0.552;2023-04-19T14:47:27;4.25;;;4.25;;
79314;SDS011;68777;44.804;0.552;2023-04-19T14:49:52;4.00;;;4.00;;